DW5321 Paradera AW current weather conditions

sailwx.info

Wind from 083 at 1 knots gusting 5

Air temperature 27.2° C
Dewpoint 25.1° C

Last reported at 2014-Oct-26 04:37 UTC.
Time now 2014-Oct-26 06:02 UTC

Location: N 12°33' W 070°00'.
View on Google Maps.

See reports from other nearby stations

  
Tides and Currents Weather Stations Pressure Air Temp Water Temp Dewpoint Dewpoint Depression Visibility Wind Speed Wind Dir Waves Ship Positions
date/time (UTC)wind fromknots sea level pressurealtimeterstation pressurevisibilityair tempwater tempwave heightnotes
2014-Oct-26 04:37 083 1 gusting 5 27.2
2014-Oct-26 04:22 105 4 gusting 6 27.8
2014-Oct-26 04:07 127 3 gusting 6 27.8
2014-Oct-26 03:52 105 3 gusting 8 27.8
2014-Oct-26 03:37 094 4 gusting 8 27.8
2014-Oct-26 03:22 108 3 gusting 8 27.8
2014-Oct-26 03:07 086 6 gusting 9 27.8
2014-Oct-26 02:52 066 4 gusting 10 27.8
2014-Oct-26 02:37 109 6 27.8
2014-Oct-26 02:22 093 6 gusting 11 27.8
2014-Oct-26 02:07 096 4 gusting 11 27.8
2014-Oct-26 01:52 117 4 gusting 8 27.8
2014-Oct-26 01:37 110 6 gusting 12 27.8
2014-Oct-26 01:22 109 6 gusting 11 27.8
2014-Oct-26 01:07 066 4 gusting 10 27.8
2014-Oct-26 00:52 101 6 gusting 12 27.8
2014-Oct-26 00:37 087 6 gusting 10 27.8
2014-Oct-26 00:22 077 6 gusting 13 27.8
2014-Oct-26 00:07 054 7 gusting 13 28.3
2014-Oct-25 23:52 125 5 gusting 10 27.8
2014-Oct-25 23:37 132 5 gusting 8 28.3
2014-Oct-25 23:22 071 3 gusting 10 28.3
2014-Oct-25 23:07 084 4 gusting 10 28.3
2014-Oct-25 22:52 110 5 gusting 10 28.3
2014-Oct-25 22:37 109 6 gusting 10 28.3
2014-Oct-25 22:22 097 6 gusting 12 28.3
2014-Oct-25 22:07 086 5 gusting 13 28.9
2014-Oct-25 21:51 110 7 gusting 13 28.9
2014-Oct-25 21:36 101 7 gusting 13 28.9
2014-Oct-25 21:21 111 7 gusting 13 28.9
2014-Oct-25 21:06 079 6 gusting 11 29.4
2014-Oct-25 20:51 104 9 gusting 13 29.4
2014-Oct-25 20:36 101 7 gusting 13 30.0
2014-Oct-25 20:21 082 6 gusting 13 30.0
2014-Oct-25 20:06 079 6 gusting 12 30.0
2014-Oct-25 19:51 142 8 gusting 16 30.0
2014-Oct-25 19:36 118 7 gusting 14 30.0
2014-Oct-25 19:21 075 7 gusting 13 30.0
2014-Oct-25 19:06 108 8 gusting 13 30.0
2014-Oct-25 18:51 079 7 gusting 13 30.0
2014-Oct-25 18:36 113 10 gusting 16 30.0
2014-Oct-25 18:21 119 11 gusting 17 30.0
2014-Oct-25 18:06 086 13 gusting 17 30.0
2014-Oct-25 17:51 096 9 gusting 13 30.0
2014-Oct-25 17:36 099 6 gusting 12 30.0
2014-Oct-25 17:21 111 8 gusting 14 30.0
2014-Oct-25 17:06 139 12 gusting 19 30.0
2014-Oct-25 16:51 086 6 gusting 15 30.6
2014-Oct-25 16:36 107 9 gusting 14 30.6
2014-Oct-25 16:21 113 9 gusting 16 30.0
2014-Oct-25 16:06 082 8 gusting 17 30.6
2014-Oct-25 15:51 129 7 gusting 14 30.0
2014-Oct-25 15:36 094 9 gusting 16 30.0
2014-Oct-25 15:21 085 8 gusting 16 30.0
2014-Oct-25 15:06 084 9 gusting 17 30.6
2014-Oct-25 14:51 105 6 gusting 16 30.0
2014-Oct-25 14:36 105 12 gusting 17 30.0
2014-Oct-25 14:21 111 9 gusting 15 30.0
2014-Oct-25 14:06 103 7 gusting 15 30.0
2014-Oct-25 13:51 107 6 gusting 14 30.0
2014-Oct-25 13:36 119 9 gusting 14 29.4
2014-Oct-25 13:21 099 12 gusting 15 29.4
2014-Oct-25 13:06 108 8 gusting 15 29.4
2014-Oct-25 12:51 108 11 gusting 17 29.4
2014-Oct-25 12:36 110 6 gusting 12 29.4
2014-Oct-25 12:21 131 7 gusting 13 28.9
2014-Oct-25 12:06 112 6 gusting 13 28.3
2014-Oct-25 11:51 070 4 gusting 9 28.3
2014-Oct-25 11:36 098 2 gusting 6 27.8
2014-Oct-25 11:21 117 5 gusting 8 27.8
2014-Oct-25 11:06 097 4 gusting 6 27.2
2014-Oct-25 10:50 110 2 gusting 5 26.7
2014-Oct-25 10:35 105 3 gusting 6 26.7
2014-Oct-25 10:20 089 4 gusting 7 26.7
2014-Oct-25 10:05 101 2 gusting 6 26.7
2014-Oct-25 09:50 092 2 gusting 4 26.7
2014-Oct-25 09:35 112 3 gusting 6 26.7
2014-Oct-25 09:20 101 1 gusting 6 26.7
2014-Oct-25 09:05 091 4 gusting 6 26.7
2014-Oct-25 08:50 113 3 gusting 6 26.7
2014-Oct-25 08:35 094 3 gusting 7 26.7
2014-Oct-25 08:20 105 4 gusting 6 26.7
2014-Oct-25 08:05 117 4 gusting 8 26.1
2014-Oct-25 07:50 089 5 gusting 8 26.1
2014-Oct-25 07:35 104 4 gusting 8 26.1
2014-Oct-25 07:20 094 5 gusting 8 26.1
2014-Oct-25 07:05 071 4 gusting 8 26.1
2014-Oct-25 06:50 127 3 gusting 6 26.1
2014-Oct-25 06:35 105 5 gusting 13 26.7
2014-Oct-25 06:20 094 6 gusting 14 27.2
2014-Oct-25 06:05 113 5 gusting 13 27.8
2014-Oct-25 05:50 117 4 gusting 9 27.8
2014-Oct-25 05:35 096 6 gusting 8 27.8
2014-Oct-25 05:20 066 5 gusting 13 27.8
2014-Oct-25 05:05 108 6 gusting 11 27.8
2014-Oct-25 04:50 068 5 gusting 8 27.8
2014-Oct-25 04:35 105 4 gusting 10 27.8
2014-Oct-25 04:20 120 5 gusting 10 27.8
2014-Oct-25 04:05 077 6 gusting 9 27.8
2014-Oct-25 03:50 077 5 gusting 10 27.8
2014-Oct-25 03:35 077 3 gusting 7 27.8
2014-Oct-25 03:20 112 3 gusting 7 27.8
2014-Oct-25 03:05 091 5 gusting 7 27.8
2014-Oct-25 02:50 055 4 gusting 7 28.3
2014-Oct-25 02:36 089 4 gusting 9 27.8
2014-Oct-25 02:20 092 4 gusting 7 28.3
2014-Oct-25 02:05 104 4 gusting 7 28.3
2014-Oct-25 01:50 117 6 gusting 9 28.3
2014-Oct-25 01:35 101 6 gusting 8 28.3
2014-Oct-25 01:20 085 4 gusting 7 27.8
2014-Oct-25 01:05 104 3 gusting 7 27.8
2014-Oct-25 00:50 087 4 gusting 9 27.8
2014-Oct-25 00:35 094 5 gusting 10 27.8
2014-Oct-25 00:20 101 5 gusting 7 27.8
2014-Oct-25 00:05 079 5 gusting 8 27.8
2014-Oct-24 23:50 064 6 gusting 9 28.3
2014-Oct-24 23:35 077 4 gusting 9 28.3
2014-Oct-24 23:21 101 5 gusting 11 28.3
2014-Oct-24 23:05 108 3 gusting 8 28.3
2014-Oct-24 22:50 072 4 gusting 9 28.3
2014-Oct-24 22:35 077 4 gusting 9 28.3
2014-Oct-24 22:20 073 5 gusting 8 28.3
2014-Oct-24 22:04 093 6 gusting 10 28.9
2014-Oct-24 21:49 103 6 gusting 12 28.9
2014-Oct-24 21:34 078 6 gusting 13 28.9
2014-Oct-24 21:19 051 4 gusting 11 29.4
2014-Oct-24 21:04 354 6 gusting 12 29.4
2014-Oct-24 20:49 080 6 gusting 12 29.4
2014-Oct-24 20:34 081 5 gusting 13 30.0
2014-Oct-24 20:19 094 5 gusting 11 30.0
2014-Oct-24 20:04 088 6 gusting 13 30.0
2014-Oct-24 19:49 064 5 gusting 11 30.6
2014-Oct-24 19:34 105 5 gusting 8 31.1
2014-Oct-24 19:19 079 6 gusting 11 30.6
2014-Oct-24 19:04 070 4 gusting 12 31.1
2014-Oct-24 18:49 048 6 gusting 14 31.1
2014-Oct-24 18:34 330 5 gusting 11 31.1
2014-Oct-24 18:19 074 6 gusting 12 31.1
2014-Oct-24 18:05 060 6 gusting 13 31.1
2014-Oct-24 17:49 079 8 gusting 15 31.1
2014-Oct-24 17:34 051 7 gusting 13 31.1
2014-Oct-24 17:19 101 6 gusting 13 31.1
2014-Oct-24 17:04 077 6 gusting 12 31.1
2014-Oct-24 16:49 060 6 gusting 13 31.7
2014-Oct-24 16:34 101 9 gusting 19 31.1
2014-Oct-24 16:19 089 7 gusting 13 31.1
2014-Oct-24 16:04 159 6 gusting 15 31.1
2014-Oct-24 15:49 108 6 gusting 14 31.1
2014-Oct-24 15:34 081 7 gusting 15 31.1
2014-Oct-24 15:19 094 7 gusting 13 31.1
2014-Oct-24 15:04 066 9 gusting 13 30.6
2014-Oct-24 14:49 101 9 gusting 16 30.6
2014-Oct-24 14:19 088 8 gusting 13 30.6
2014-Oct-24 14:04 082 6 gusting 13 30.0
2014-Oct-24 13:49 094 6 gusting 15 30.0
2014-Oct-24 13:34 060 6 gusting 11 29.4
2014-Oct-24 13:18 105 7 gusting 12 28.9
2014-Oct-24 13:03 070 4 gusting 8 29.4
2014-Oct-24 12:48 079 5 gusting 9 29.4
2014-Oct-24 12:33 112 6 gusting 9 28.9
2014-Oct-24 12:18 063 4 gusting 9 28.9
2014-Oct-24 12:03 060 5 gusting 8 28.9
2014-Oct-24 11:48 130 3 gusting 7 28.9
2014-Oct-24 11:33 073 4 gusting 7 28.3
2014-Oct-24 11:18 066 2 gusting 4 27.8
2014-Oct-24 11:03 100 1 gusting 4 27.2
2014-Oct-24 10:48 084 1 gusting 4 27.2
2014-Oct-24 10:33 096 1 gusting 3 27.2
2014-Oct-24 10:18 080 2 gusting 4 27.2
2014-Oct-24 10:03 120 2 gusting 7 27.2
2014-Oct-24 09:48 101 3 gusting 6 27.2
2014-Oct-24 09:33 077 5 gusting 8 27.2
2014-Oct-24 09:18 096 4 gusting 8 27.2
2014-Oct-24 09:03 091 4 gusting 8 27.2
2014-Oct-24 08:48 083 3 gusting 9 27.2
2014-Oct-24 08:33 086 3 gusting 6 27.2
2014-Oct-24 08:18 094 3 gusting 7 27.2
2014-Oct-24 08:03 065 4 gusting 8 27.2
2014-Oct-24 07:48 060 4 gusting 7 27.2
2014-Oct-24 07:33 101 6 gusting 11 27.2
2014-Oct-24 07:18 084 3 gusting 6 27.2
2014-Oct-24 07:03 090 2 gusting 6 27.2
2014-Oct-24 06:48 108 4 gusting 7 27.2
2014-Oct-24 06:33 105 4 gusting 6 27.2
2014-Oct-24 06:18 082 4 gusting 8 27.2
2014-Oct-24 06:03 058 4 gusting 7 27.2